createdAt,value
2023-02-22T00:01:28.324Z,18.60
2023-02-22T00:03:56.158Z,18.60
2023-02-22T00:06:25.744Z,18.60
2023-02-22T00:08:55.698Z,18.60
2023-02-22T00:11:23.545Z,18.60
2023-02-22T00:13:51.618Z,18.60
2023-02-22T00:16:20.482Z,18.70
2023-02-22T00:18:48.436Z,18.60
2023-02-22T00:21:24.232Z,18.60
2023-02-22T00:23:54.721Z,18.60
2023-02-22T00:26:24.594Z,18.60
2023-02-22T00:28:53.627Z,18.60
2023-02-22T00:31:21.537Z,18.60
2023-02-22T00:33:49.741Z,18.60
2023-02-22T00:36:17.751Z,18.60
2023-02-22T00:38:46.397Z,18.60
2023-02-22T00:41:14.724Z,18.60
2023-02-22T00:43:44.963Z,18.60
2023-02-22T00:46:14.505Z,18.60
2023-02-22T00:48:43.190Z,18.60
2023-02-22T00:51:11.215Z,18.60
2023-02-22T00:53:39.718Z,18.60
2023-02-22T00:56:08.237Z,18.60
2023-02-22T00:58:36.412Z,18.60
2023-02-22T01:01:05.879Z,18.60
2023-02-22T01:03:35.630Z,18.60
2023-02-22T01:06:03.592Z,18.60
2023-02-22T01:08:32.650Z,18.60
2023-02-22T01:11:00.639Z,18.60
2023-02-22T01:13:28.591Z,18.60
2023-02-22T01:15:56.917Z,18.60
2023-02-22T01:18:27.265Z,18.60
2023-02-22T01:20:55.074Z,18.60
2023-02-22T01:23:23.305Z,18.60
2023-02-22T01:25:51.291Z,18.60
2023-02-22T01:28:19.308Z,18.60
2023-02-22T01:30:47.618Z,18.60
2023-02-22T01:33:15.990Z,18.60
2023-02-22T01:35:46.634Z,18.60
2023-02-22T01:38:15.138Z,18.60
2023-02-22T01:40:44.486Z,18.60
2023-02-22T01:43:18.084Z,18.60
2023-02-22T01:46:00.063Z,18.60
2023-02-22T01:48:40.319Z,18.60
2023-02-22T01:51:12.909Z,18.60
2023-02-22T01:53:45.132Z,18.60
2023-02-22T01:56:13.563Z,18.60
2023-02-22T01:58:42.976Z,18.60
2023-02-22T02:01:11.122Z,18.60
2023-02-22T02:03:39.699Z,18.60
2023-02-22T02:06:12.261Z,18.60
2023-02-22T02:08:51.683Z,18.60
2023-02-22T02:11:21.674Z,18.60
2023-02-22T02:13:51.161Z,18.60
2023-02-22T02:16:19.189Z,18.60
2023-02-22T02:18:47.544Z,18.60
2023-02-22T02:21:41.797Z,18.60
2023-02-22T02:24:50.425Z,18.60
2023-02-22T02:27:20.006Z,18.60
2023-02-22T02:30:33.628Z,18.60
2023-02-22T02:33:04.616Z,18.50
2023-02-22T02:35:52.060Z,18.50
2023-02-22T02:38:26.220Z,18.50
2023-02-22T02:40:59.236Z,18.50
2023-02-22T02:43:30.819Z,18.50
2023-02-22T02:46:02.740Z,18.50
2023-02-22T02:48:32.854Z,18.50
2023-02-22T02:51:02.441Z,18.50
2023-02-22T02:53:34.343Z,18.50
2023-02-22T02:56:02.309Z,18.50
2023-02-22T02:58:30.403Z,18.50
2023-02-22T03:00:59.564Z,18.50
2023-02-22T03:03:47.691Z,18.50
2023-02-22T03:06:30.480Z,18.50
2023-02-22T03:09:00.617Z,18.50
2023-02-22T03:11:29.734Z,18.50
2023-02-22T03:14:02.827Z,18.50
2023-02-22T03:16:34.106Z,18.50
2023-02-22T03:19:07.395Z,18.50
2023-02-22T03:21:37.935Z,18.50
2023-02-22T03:24:08.470Z,18.50
2023-02-22T03:26:41.006Z,18.50
2023-02-22T03:29:09.509Z,18.50
2023-02-22T03:31:39.626Z,18.50
2023-02-22T03:34:10.755Z,18.50
2023-02-22T03:36:40.426Z,18.50
2023-02-22T03:39:10.643Z,18.50
2023-02-22T03:41:39.767Z,18.40
2023-02-22T03:44:09.399Z,18.50
2023-02-22T03:46:37.703Z,18.50
2023-02-22T03:49:09.882Z,18.50
2023-02-22T03:51:37.643Z,18.50
2023-02-22T03:54:06.199Z,18.50
2023-02-22T03:56:36.568Z,18.50
2023-02-22T03:59:05.399Z,18.50
2023-02-22T04:01:33.144Z,18.50
2023-02-22T04:04:01.309Z,18.40
2023-02-22T04:06:30.981Z,18.50
2023-02-22T04:08:58.920Z,18.50
2023-02-22T04:11:27.186Z,18.50
2023-02-22T04:13:55.831Z,18.40
2023-02-22T04:16:24.230Z,18.40
2023-02-22T04:18:52.331Z,18.40
2023-02-22T04:21:20.957Z,18.40
2023-02-22T04:23:50.319Z,18.40
2023-02-22T04:26:18.840Z,18.40
2023-02-22T04:28:56.401Z,18.40
2023-02-22T04:31:24.966Z,18.40
2023-02-22T04:33:52.959Z,18.40
2023-02-22T04:36:21.746Z,18.40
2023-02-22T04:38:51.441Z,18.40
2023-02-22T04:41:19.551Z,18.40
2023-02-22T04:43:47.959Z,18.40
2023-02-22T04:46:15.776Z,18.40
2023-02-22T04:48:43.659Z,18.40
2023-02-22T04:51:11.602Z,18.40
2023-02-22T04:53:39.575Z,18.40
2023-02-22T04:56:09.156Z,18.40
2023-02-22T04:58:37.590Z,18.40
2023-02-22T05:01:05.629Z,18.40
2023-02-22T05:03:33.443Z,18.40
2023-02-22T05:06:01.534Z,18.40
2023-02-22T05:08:29.700Z,18.40
2023-02-22T05:10:57.713Z,18.40
2023-02-22T05:13:27.512Z,18.40
2023-02-22T05:15:55.540Z,18.40
2023-02-22T05:18:23.986Z,18.40
2023-02-22T05:20:51.943Z,18.40
2023-02-22T05:23:20.425Z,18.40
2023-02-22T05:25:48.432Z,18.40
2023-02-22T05:28:17.179Z,18.30
2023-02-22T05:30:46.592Z,18.40
2023-02-22T05:33:14.883Z,18.40
2023-02-22T05:35:42.770Z,18.30
2023-02-22T05:38:11.655Z,18.30
2023-02-22T05:40:39.714Z,18.30
2023-02-22T05:43:07.708Z,18.30
2023-02-22T05:45:36.220Z,18.30
2023-02-22T05:48:06.118Z,18.30
2023-02-22T05:50:34.587Z,18.30
2023-02-22T05:53:02.629Z,18.40
2023-02-22T05:55:31.026Z,18.30
2023-02-22T05:57:59.118Z,18.30
2023-02-22T06:00:29.086Z,18.40
2023-02-22T06:02:57.895Z,18.30
2023-02-22T06:05:27.656Z,18.30
2023-02-22T06:07:55.808Z,18.30
2023-02-22T06:10:23.971Z,18.30
2023-02-22T06:12:52.258Z,18.30
2023-02-22T06:15:20.627Z,18.30
2023-02-22T06:17:48.493Z,18.30
2023-02-22T06:20:17.266Z,18.30
2023-02-22T06:22:48.224Z,18.30
2023-02-22T06:25:16.596Z,18.30
2023-02-22T06:27:44.957Z,18.30
2023-02-22T06:30:13.609Z,18.30
2023-02-22T06:32:41.640Z,18.30
2023-02-22T06:35:09.589Z,18.30
2023-02-22T06:37:38.649Z,18.30
2023-02-22T06:40:08.277Z,18.30
2023-02-22T06:42:36.888Z,18.30
2023-02-22T06:45:05.250Z,18.30
2023-02-22T06:47:39.269Z,18.30
2023-02-22T06:50:07.854Z,18.30
2023-02-22T06:52:36.275Z,18.30
2023-02-22T06:55:04.230Z,18.30
2023-02-22T06:57:33.839Z,18.30
2023-02-22T07:00:01.836Z,18.30
2023-02-22T07:02:29.759Z,18.30
2023-02-22T07:04:58.178Z,18.30
2023-02-22T07:07:26.426Z,18.30
2023-02-22T07:09:54.686Z,18.30
2023-02-22T07:12:22.666Z,18.30
2023-02-22T07:14:52.554Z,18.30
2023-02-22T07:17:20.538Z,18.30
2023-02-22T07:19:48.890Z,18.30
2023-02-22T07:22:17.601Z,18.30
2023-02-22T07:24:45.938Z,18.30
2023-02-22T07:27:13.812Z,18.30
2023-02-22T07:29:44.140Z,18.30
2023-02-22T07:32:13.560Z,18.30
2023-02-22T07:34:43.493Z,18.30
2023-02-22T07:37:11.831Z,18.30
2023-02-22T07:39:55.881Z,18.30
2023-02-22T07:42:23.802Z,18.30
2023-02-22T07:44:51.681Z,18.30
2023-02-22T07:47:21.467Z,18.30
2023-02-22T07:49:49.291Z,18.40
2023-02-22T07:52:18.103Z,18.40
2023-02-22T07:54:47.817Z,18.40
2023-02-22T07:57:17.315Z,18.40
2023-02-22T07:59:53.972Z,18.40
2023-02-22T08:02:23.878Z,18.40
2023-02-22T08:04:51.892Z,18.50
2023-02-22T08:07:20.258Z,18.50
2023-02-22T08:09:48.207Z,18.50
2023-02-22T08:12:16.980Z,18.50
2023-02-22T08:14:44.992Z,18.60
2023-02-22T08:17:13.318Z,18.60
2023-02-22T08:19:42.821Z,18.60
2023-02-22T08:22:11.470Z,18.60
2023-02-22T08:24:40.667Z,18.70
2023-02-22T08:27:09.298Z,18.70
2023-02-22T08:29:37.140Z,18.80
2023-02-22T08:32:06.035Z,18.80
2023-02-22T08:34:33.853Z,18.80
2023-02-22T08:37:03.340Z,18.90
2023-02-22T08:39:31.307Z,18.90
2023-02-22T08:41:59.222Z,18.90
2023-02-22T08:44:27.708Z,18.90
2023-02-22T08:46:56.246Z,18.90
2023-02-22T08:49:24.580Z,18.90
2023-02-22T08:51:52.370Z,18.90
2023-02-22T08:54:22.869Z,19.00
2023-02-22T08:56:51.013Z,19.00
2023-02-22T08:59:19.511Z,19.00
2023-02-22T09:01:47.345Z,19.00
2023-02-22T09:04:15.566Z,19.00
2023-02-22T09:06:44.136Z,19.10
2023-02-22T09:09:12.382Z,19.10
2023-02-22T09:11:41.466Z,19.10
2023-02-22T09:14:09.725Z,19.10
2023-02-22T09:16:39.291Z,19.10
2023-02-22T09:19:07.794Z,19.10
2023-02-22T09:21:35.738Z,19.10
2023-02-22T09:24:08.746Z,19.10
2023-02-22T09:26:39.350Z,19.20
2023-02-22T09:29:11.242Z,19.20
2023-02-22T09:31:39.762Z,19.20
2023-02-22T09:34:14.114Z,19.20
2023-02-22T09:36:42.174Z,19.30
2023-02-22T09:39:11.211Z,19.30
2023-02-22T09:41:41.659Z,19.40
2023-02-22T09:44:17.666Z,19.40
2023-02-22T09:46:46.270Z,19.50
2023-02-22T09:49:20.179Z,19.50
2023-02-22T09:51:50.567Z,19.60
2023-02-22T09:54:22.635Z,19.60
2023-02-22T09:56:51.154Z,19.70
2023-02-22T09:59:23.725Z,19.70
2023-02-22T10:01:55.636Z,19.80
2023-02-22T10:04:24.734Z,19.90
2023-02-22T10:07:06.401Z,20.10
2023-02-22T10:09:37.679Z,20.30
2023-02-22T10:12:09.536Z,20.40
2023-02-22T10:14:52.277Z,20.50
2023-02-22T10:17:27.642Z,20.60
2023-02-22T10:20:13.397Z,20.70
2023-02-22T10:22:46.278Z,20.70
2023-02-22T10:25:15.005Z,20.90
2023-02-22T10:27:44.289Z,21.10
2023-02-22T10:30:25.055Z,21.20
2023-02-22T10:32:58.546Z,21.30
2023-02-22T10:35:27.912Z,21.50
2023-02-22T10:37:57.773Z,21.70
2023-02-22T10:40:32.235Z,21.90
2023-02-22T10:43:03.655Z,22.10
2023-02-22T10:45:33.723Z,22.30
2023-02-22T10:48:03.380Z,22.50
2023-02-22T10:50:31.880Z,22.70
2023-02-22T10:53:00.442Z,22.90
2023-02-22T10:55:28.486Z,23.20
2023-02-22T10:58:02.118Z,23.40
2023-02-22T11:00:32.784Z,23.50
2023-02-22T11:03:01.764Z,23.70
2023-02-22T11:05:31.959Z,23.80
2023-02-22T11:08:17.265Z,23.90
2023-02-22T11:10:45.185Z,24.00
2023-02-22T11:13:20.607Z,24.10
2023-02-22T11:15:50.359Z,24.20
2023-02-22T11:18:24.446Z,24.30
2023-02-22T11:21:00.890Z,24.40
2023-02-22T11:23:29.457Z,24.50
2023-02-22T11:26:07.333Z,24.70
2023-02-22T11:28:35.702Z,24.80
2023-02-22T11:31:23.866Z,24.90
2023-02-22T11:34:05.430Z,25.00
2023-02-22T11:36:46.663Z,25.20
2023-02-22T11:39:27.057Z,25.20
2023-02-22T11:41:57.582Z,25.30
2023-02-22T11:44:29.007Z,25.50
2023-02-22T11:47:01.447Z,25.50
2023-02-22T11:49:34.490Z,25.60
2023-02-22T11:52:27.158Z,25.60
2023-02-22T11:55:03.081Z,25.50
2023-02-22T11:57:41.163Z,25.50
2023-02-22T12:00:17.707Z,25.40
2023-02-22T12:03:06.755Z,25.30
2023-02-22T12:06:07.624Z,25.10
2023-02-22T12:08:53.442Z,25.00
2023-02-22T12:11:24.802Z,24.80
2023-02-22T12:14:00.456Z,24.80
2023-02-22T12:16:33.250Z,24.80
2023-02-22T12:19:12.429Z,24.70
2023-02-22T12:21:42.222Z,24.70
2023-02-22T12:24:14.302Z,24.70
2023-02-22T12:26:43.717Z,24.80
2023-02-22T12:29:14.436Z,25.00
2023-02-22T12:31:45.414Z,25.00
2023-02-22T12:34:19.977Z,25.10
2023-02-22T12:36:50.292Z,25.20
2023-02-22T12:39:26.743Z,25.30
2023-02-22T12:41:56.625Z,25.40
2023-02-22T12:44:26.771Z,25.50
2023-02-22T12:46:57.112Z,25.50
2023-02-22T12:49:29.485Z,25.40
2023-02-22T12:52:03.075Z,25.40
2023-02-22T12:54:39.961Z,25.30
2023-02-22T12:57:11.824Z,25.10
2023-02-22T12:59:42.276Z,25.00
2023-02-22T13:02:15.068Z,24.80
2023-02-22T13:04:44.549Z,24.60
2023-02-22T13:07:28.454Z,24.50
2023-02-22T13:10:23.347Z,24.50
2023-02-22T13:12:54.689Z,24.40
2023-02-22T13:15:24.742Z,24.40
2023-02-22T13:18:01.534Z,24.50
2023-02-22T13:20:33.688Z,24.50
2023-02-22T13:23:10.646Z,24.60
2023-02-22T13:25:44.384Z,24.70
2023-02-22T13:28:21.940Z,24.80
2023-02-22T13:30:58.512Z,24.90
2023-02-22T13:33:33.796Z,24.90
2023-02-22T13:36:15.933Z,25.00
2023-02-22T13:39:00.032Z,25.00
2023-02-22T13:41:52.076Z,25.00
2023-02-22T13:45:04.904Z,24.90
2023-02-22T13:47:55.221Z,24.90
2023-02-22T13:50:44.962Z,24.80
2023-02-22T13:53:16.306Z,24.60
2023-02-22T13:55:47.171Z,24.50
2023-02-22T13:58:15.523Z,24.40
2023-02-22T14:00:46.458Z,24.30
2023-02-22T14:03:37.573Z,24.20
2023-02-22T14:06:06.724Z,24.20
2023-02-22T14:08:45.763Z,24.20
2023-02-22T14:11:46.844Z,24.10
2023-02-22T14:14:21.312Z,24.10
2023-02-22T14:17:32.424Z,24.10
2023-02-22T14:20:19.797Z,24.00
2023-02-22T14:22:48.756Z,23.90
2023-02-22T14:25:36.333Z,24.00
2023-02-22T14:28:05.115Z,23.90
2023-02-22T14:30:33.947Z,23.90
2023-02-22T14:33:02.800Z,23.80
2023-02-22T14:35:47.868Z,23.80
2023-02-22T14:38:19.513Z,23.70
2023-02-22T14:40:51.696Z,23.70
2023-02-22T14:43:21.631Z,23.60
2023-02-22T14:45:54.909Z,23.60
2023-02-22T14:48:29.521Z,23.50
2023-02-22T14:51:02.000Z,23.50
2023-02-22T14:53:38.317Z,23.40
2023-02-22T14:56:12.119Z,23.30
2023-02-22T14:58:46.146Z,23.20
2023-02-22T15:01:44.418Z,23.20
2023-02-22T15:04:19.746Z,23.10
2023-02-22T15:06:50.521Z,23.00
2023-02-22T15:09:27.007Z,23.00
2023-02-22T15:12:13.958Z,23.00
2023-02-22T15:14:50.044Z,22.90
2023-02-22T15:17:24.795Z,22.80
2023-02-22T15:19:58.669Z,22.80
2023-02-22T15:22:31.973Z,22.80
2023-02-22T15:25:05.731Z,22.70
2023-02-22T15:27:37.088Z,22.70
2023-02-22T15:30:07.116Z,22.60
2023-02-22T15:32:36.758Z,22.60
2023-02-22T15:35:17.098Z,22.60
2023-02-22T15:37:45.339Z,22.50
2023-02-22T15:40:17.392Z,22.50
2023-02-22T15:42:48.298Z,22.50
2023-02-22T15:45:18.520Z,22.50
2023-02-22T15:47:46.553Z,22.40
2023-02-22T15:50:21.625Z,22.40
2023-02-22T15:52:53.104Z,22.40
2023-02-22T15:55:21.167Z,22.40
2023-02-22T15:57:50.284Z,22.40
2023-02-22T16:00:24.273Z,22.30
2023-02-22T16:02:52.234Z,22.30
2023-02-22T16:05:20.103Z,22.30
2023-02-22T16:07:50.479Z,22.20
2023-02-22T16:10:27.646Z,22.20
2023-02-22T16:13:08.013Z,22.20
2023-02-22T16:15:36.050Z,22.10
2023-02-22T16:18:24.631Z,22.10
2023-02-22T16:20:59.661Z,22.10
2023-02-22T16:23:27.993Z,22.00
2023-02-22T16:26:06.943Z,21.90
2023-02-22T16:28:36.585Z,21.90
2023-02-22T16:31:04.821Z,21.80
2023-02-22T16:33:34.266Z,21.80
2023-02-22T16:36:06.186Z,21.80
2023-02-22T16:38:38.676Z,21.80
2023-02-22T16:41:07.595Z,21.80
2023-02-22T16:43:37.814Z,21.70
2023-02-22T16:46:07.126Z,21.70
2023-02-22T16:48:38.139Z,21.70
2023-02-22T16:51:15.491Z,21.60
2023-02-22T16:53:44.905Z,21.60
2023-02-22T16:56:13.235Z,21.60
2023-02-22T16:58:42.467Z,21.60
2023-02-22T17:01:12.980Z,21.50
2023-02-22T17:03:40.982Z,21.50
2023-02-22T17:06:10.481Z,21.50
2023-02-22T17:08:38.705Z,21.50
2023-02-22T17:11:06.787Z,21.50
2023-02-22T17:13:35.463Z,21.40
2023-02-22T17:16:05.590Z,21.40
2023-02-22T17:18:34.830Z,21.40
2023-02-22T17:21:03.467Z,21.40
2023-02-22T17:23:31.535Z,21.40
2023-02-22T17:26:02.302Z,21.40
2023-02-22T17:28:30.990Z,21.30
2023-02-22T17:31:01.583Z,21.30
2023-02-22T17:33:33.249Z,21.30
2023-02-22T17:36:05.028Z,21.30
2023-02-22T17:38:34.573Z,21.30
2023-02-22T17:41:03.345Z,21.30
2023-02-22T17:43:31.694Z,21.20
2023-02-22T17:46:00.144Z,21.20
2023-02-22T17:48:28.296Z,21.20
2023-02-22T17:50:57.810Z,21.20
2023-02-22T17:53:25.830Z,21.20
2023-02-22T17:55:53.984Z,21.20
2023-02-22T17:58:23.700Z,21.20
2023-02-22T18:00:51.912Z,21.10
2023-02-22T18:03:21.899Z,21.10
2023-02-22T18:05:51.045Z,21.10
2023-02-22T18:08:20.556Z,21.10
2023-02-22T18:10:53.067Z,21.10
2023-02-22T18:13:20.932Z,21.10
2023-02-22T18:15:49.043Z,21.10
2023-02-22T18:18:17.852Z,21.00
2023-02-22T18:20:46.078Z,21.00
2023-02-22T18:23:16.019Z,21.00
2023-02-22T18:26:03.898Z,21.00
2023-02-22T18:28:37.528Z,21.00
2023-02-22T18:31:08.609Z,21.00
2023-02-22T18:33:36.644Z,21.00
2023-02-22T18:36:04.954Z,20.90
2023-02-22T18:38:33.221Z,20.90
2023-02-22T18:41:03.112Z,20.90
2023-02-22T18:43:31.885Z,20.90
2023-02-22T18:46:06.844Z,20.90
2023-02-22T18:48:35.238Z,20.90
2023-02-22T18:51:03.368Z,20.80
2023-02-22T18:53:31.484Z,20.80
2023-02-22T18:56:05.631Z,20.80
2023-02-22T18:58:33.932Z,20.80
2023-02-22T19:01:01.958Z,20.80
2023-02-22T19:03:30.120Z,20.80
2023-02-22T19:06:02.200Z,20.80
2023-02-22T19:08:32.519Z,20.80
2023-02-22T19:11:06.945Z,20.70
2023-02-22T19:13:36.403Z,20.70
2023-02-22T19:16:04.842Z,20.70
2023-02-22T19:18:32.832Z,20.70
2023-02-22T19:21:01.072Z,20.70
2023-02-22T19:23:34.247Z,20.70
2023-02-22T19:26:04.648Z,20.70
2023-02-22T19:28:34.778Z,20.60
2023-02-22T19:31:15.140Z,20.60
2023-02-22T19:33:43.078Z,20.60
2023-02-22T19:36:11.523Z,20.60
2023-02-22T19:38:39.778Z,20.60
2023-02-22T19:41:10.635Z,20.50
2023-02-22T19:43:38.657Z,20.60
2023-02-22T19:46:07.617Z,20.50
2023-02-22T19:48:35.694Z,20.50
2023-02-22T19:51:06.202Z,20.50
2023-02-22T19:53:34.329Z,20.50
2023-02-22T19:56:06.145Z,20.50
2023-02-22T19:58:36.775Z,20.50
2023-02-22T20:01:12.729Z,20.40
2023-02-22T20:03:41.905Z,20.40
2023-02-22T20:06:10.392Z,20.40
2023-02-22T20:08:42.172Z,20.40
2023-02-22T20:11:10.700Z,20.40
2023-02-22T20:13:41.560Z,20.40
2023-02-22T20:16:10.925Z,20.30
2023-02-22T20:18:38.900Z,20.30
2023-02-22T20:21:10.170Z,20.30
2023-02-22T20:23:40.158Z,20.30
2023-02-22T20:26:10.416Z,20.30
2023-02-22T20:28:40.065Z,20.30
2023-02-22T20:31:11.250Z,20.20
2023-02-22T20:33:41.740Z,20.20
2023-02-22T20:36:10.895Z,20.20
2023-02-22T20:38:39.400Z,20.20
2023-02-22T20:41:08.064Z,20.10
2023-02-22T20:43:36.341Z,20.20
2023-02-22T20:46:06.421Z,20.10
2023-02-22T20:48:34.882Z,20.10
2023-02-22T20:51:06.505Z,20.10
2023-02-22T20:53:35.767Z,20.10
2023-02-22T20:56:04.253Z,20.10
2023-02-22T20:58:32.427Z,20.10
2023-02-22T21:01:06.251Z,20.00
2023-02-22T21:03:34.399Z,20.00
2023-02-22T21:06:02.488Z,20.00
2023-02-22T21:08:31.249Z,20.00
2023-02-22T21:10:59.386Z,20.00
2023-02-22T21:13:27.502Z,20.00
2023-02-22T21:15:55.896Z,19.90
2023-02-22T21:18:25.310Z,20.00
2023-02-22T21:20:54.228Z,19.90
2023-02-22T21:23:22.130Z,19.90
2023-02-22T21:25:53.557Z,19.90
2023-02-22T21:28:22.308Z,19.90
2023-02-22T21:30:51.454Z,19.90
2023-02-22T21:33:19.450Z,19.90
2023-02-22T21:35:51.282Z,19.90
2023-02-22T21:38:21.007Z,19.90
2023-02-22T21:40:49.334Z,19.90
2023-02-22T21:43:17.371Z,19.90
2023-02-22T21:45:45.233Z,19.80
2023-02-22T21:48:13.547Z,19.80
2023-02-22T21:50:41.455Z,19.80
2023-02-22T21:53:10.561Z,19.80
2023-02-22T21:55:38.480Z,19.90
2023-02-22T21:58:07.288Z,19.80
2023-02-22T22:00:38.333Z,19.80
2023-02-22T22:03:08.963Z,19.80
2023-02-22T22:05:40.320Z,19.80
2023-02-22T22:08:08.493Z,19.80
2023-02-22T22:10:37.987Z,19.80
2023-02-22T22:13:09.384Z,19.80
2023-02-22T22:15:37.419Z,19.80
2023-02-22T22:18:07.709Z,19.80
2023-02-22T22:20:37.957Z,19.80
2023-02-22T22:23:06.632Z,19.80
2023-02-22T22:25:38.101Z,19.70
2023-02-22T22:28:08.678Z,19.80
2023-02-22T22:30:37.164Z,19.70
2023-02-22T22:33:08.741Z,19.70
2023-02-22T22:35:36.684Z,19.70
2023-02-22T22:38:04.898Z,19.70
2023-02-22T22:40:34.402Z,19.70
2023-02-22T22:43:02.424Z,19.70
2023-02-22T22:45:33.178Z,19.70
2023-02-22T22:48:02.180Z,19.60
2023-02-22T22:50:30.383Z,19.60
2023-02-22T22:52:58.338Z,19.60
2023-02-22T22:55:26.442Z,19.60
2023-02-22T22:57:54.400Z,19.60
2023-02-22T23:00:30.829Z,19.70
2023-02-22T23:03:00.222Z,19.60
2023-02-22T23:05:28.880Z,19.60
2023-02-22T23:07:57.196Z,19.60
2023-02-22T23:10:28.006Z,19.60
2023-02-22T23:12:56.531Z,19.60
2023-02-22T23:15:24.692Z,19.60
2023-02-22T23:17:56.183Z,19.60
2023-02-22T23:20:31.343Z,19.50
2023-02-22T23:22:59.223Z,19.60
2023-02-22T23:25:27.047Z,19.50
2023-02-22T23:27:55.605Z,19.50
2023-02-22T23:30:27.537Z,19.50
2023-02-22T23:32:58.909Z,19.50
2023-02-22T23:35:28.862Z,19.50
2023-02-22T23:37:59.041Z,19.50
2023-02-22T23:40:27.215Z,19.50
2023-02-22T23:42:56.622Z,19.50
2023-02-22T23:45:24.782Z,19.50
2023-02-22T23:47:54.953Z,19.40
2023-02-22T23:50:24.642Z,19.40
2023-02-22T23:52:59.110Z,19.40
2023-02-22T23:55:27.449Z,19.40
2023-02-22T23:57:59.334Z,19.40
